Whites Xing, Indiana
Current Conditions -  °F | °C
As of 2:35 PM on Thursday 23 Oct 2014 (Local Time) from KDCY Reporting Station
Clear Clear  
Wind Chill: 58°   Ceiling: Unl
Heat Index: 58°   Visibility: 10mi
Dew Point: 42°   Wind: 3mph
Humidity: 53%   Direction: 150°SSE
Pressure: 30.17"   Gusts: NA
Location:  39.0608°N, 87.1852°W
Report Text: KDCY 231835Z AUTO 15003KT 10SM CLR 15/05 A3017 RMK AO2 T01470053
Loading
Personal Weather Stations






























Interactive Weather Map
Tropical Storm Tracking
New forecast layout! Learn more

10-Day Weather Forecast

Advertisements
Track Severe Weather on mobile